createdAt,value
2022-11-08T00:00:10.809Z,21.80
2022-11-08T00:02:38.079Z,16.80
2022-11-08T00:05:24.215Z,22.55
2022-11-08T00:08:10.051Z,23.33
2022-11-08T00:10:55.809Z,23.35
2022-11-08T00:13:41.576Z,21.50
2022-11-08T00:16:08.723Z,22.77
2022-11-08T00:18:35.855Z,19.88
2022-11-08T00:21:03.878Z,21.17
2022-11-08T00:23:31.120Z,21.60
2022-11-08T00:25:58.352Z,18.52
2022-11-08T00:28:25.686Z,26.42
2022-11-08T00:30:52.828Z,21.17
2022-11-08T00:33:19.990Z,22.05
2022-11-08T00:35:47.172Z,21.40
2022-11-08T00:38:14.618Z,20.70
2022-11-08T00:40:41.932Z,22.27
2022-11-08T00:43:09.051Z,18.02
2022-11-08T00:45:36.233Z,21.88
2022-11-08T00:48:03.514Z,19.90
2022-11-08T00:50:30.654Z,20.23
2022-11-08T00:52:57.908Z,17.90
2022-11-08T00:55:25.133Z,23.20
2022-11-08T00:57:59.463Z,19.20
2022-11-08T01:00:28.266Z,21.58
2022-11-08T01:03:21.767Z,21.60
2022-11-08T01:05:49.873Z,22.38
2022-11-08T01:08:18.328Z,17.40
2022-11-08T01:10:48.115Z,16.45
2022-11-08T01:13:15.961Z,24.08
2022-11-08T01:15:45.640Z,17.17
2022-11-08T01:18:15.048Z,25.97
2022-11-08T01:20:43.976Z,21.17
2022-11-08T01:23:12.029Z,21.83
2022-11-08T01:25:41.609Z,19.63
2022-11-08T01:28:09.166Z,21.20
2022-11-08T01:30:37.833Z,24.75
2022-11-08T01:33:05.593Z,21.70
2022-11-08T01:35:34.513Z,21.05
2022-11-08T01:38:01.775Z,21.80
2022-11-08T01:40:29.492Z,20.38
2022-11-08T01:42:56.887Z,19.58
2022-11-08T01:46:01.299Z,18.30
2022-11-08T01:48:29.484Z,21.02
2022-11-08T01:51:00.040Z,17.20
2022-11-08T01:55:55.778Z,15.93
2022-11-08T01:58:28.511Z,18.20
2022-11-08T02:00:56.856Z,17.42
2022-11-08T02:03:24.183Z,22.02
2022-11-08T02:05:51.460Z,20.67
2022-11-08T02:08:23.334Z,23.42
2022-11-08T02:10:53.100Z,18.67
2022-11-08T02:13:23.884Z,21.87
2022-11-08T02:15:51.416Z,16.77
2022-11-08T02:18:21.169Z,19.67
2022-11-08T02:20:58.940Z,17.88
2022-11-08T02:23:41.772Z,16.90
2022-11-08T02:26:09.313Z,17.30
2022-11-08T02:28:40.914Z,16.45
2022-11-08T02:31:16.450Z,19.83
2022-11-08T02:33:44.672Z,22.05
2022-11-08T02:36:16.306Z,19.08
2022-11-08T02:38:47.009Z,20.73
2022-11-08T02:41:14.302Z,19.25
2022-11-08T02:43:41.515Z,19.40
2022-11-08T02:46:08.996Z,16.90
2022-11-08T02:48:36.186Z,19.70
2022-11-08T02:51:03.423Z,15.98
2022-11-08T02:53:30.659Z,19.45
2022-11-08T02:55:57.855Z,17.25
2022-11-08T02:58:25.192Z,18.05
2022-11-08T03:00:52.366Z,18.45
2022-11-08T03:03:19.757Z,19.38
2022-11-08T03:05:47.718Z,14.88
2022-11-08T03:08:15.750Z,19.90
2022-11-08T03:10:43.347Z,17.42
2022-11-08T03:13:10.495Z,19.58
2022-11-08T03:15:37.734Z,18.88
2022-11-08T03:18:05.190Z,17.90
2022-11-08T03:20:33.373Z,12.55
2022-11-08T03:23:03.132Z,12.07
2022-11-08T03:25:30.876Z,18.25
2022-11-08T03:28:06.091Z,17.85
2022-11-08T03:30:34.565Z,16.20
2022-11-08T03:33:01.914Z,21.40
2022-11-08T03:35:29.147Z,17.45
2022-11-08T03:37:57.597Z,19.90
2022-11-08T03:40:26.045Z,19.75
2022-11-08T03:42:55.614Z,17.50
2022-11-08T03:45:22.800Z,16.27
2022-11-08T03:47:50.010Z,17.60
2022-11-08T03:50:17.760Z,18.63
2022-11-08T03:52:50.420Z,15.73
2022-11-08T03:55:18.937Z,15.95
2022-11-08T03:57:48.344Z,16.73
2022-11-08T04:00:18.633Z,17.67
2022-11-08T04:02:46.117Z,18.08
2022-11-08T04:05:14.489Z,15.90
2022-11-08T04:07:41.950Z,17.15
2022-11-08T04:10:11.541Z,14.63
2022-11-08T04:13:02.196Z,14.43
2022-11-08T04:18:16.719Z,11.27
2022-11-08T04:21:05.597Z,16.73
2022-11-08T04:23:36.064Z,17.67
2022-11-08T04:26:08.404Z,17.75
2022-11-08T04:28:37.444Z,14.48
2022-11-08T04:31:10.997Z,19.25
2022-11-08T04:33:38.412Z,17.77
2022-11-08T04:36:08.623Z,14.02
2022-11-08T04:38:36.252Z,15.70
2022-11-08T04:41:05.621Z,16.80
2022-11-08T04:43:33.380Z,15.52
2022-11-08T04:46:06.124Z,17.85
2022-11-08T04:48:34.017Z,15.30
2022-11-08T04:51:11.311Z,17.40
2022-11-08T04:53:38.691Z,14.77
2022-11-08T04:56:11.461Z,17.13
2022-11-08T04:58:41.209Z,18.02
2022-11-08T05:01:10.261Z,18.07
2022-11-08T05:03:37.914Z,16.70
2022-11-08T05:06:08.106Z,17.35
2022-11-08T05:08:35.353Z,15.25
2022-11-08T05:11:04.928Z,13.30
2022-11-08T05:13:32.413Z,11.48
2022-11-08T05:16:05.732Z,21.13
2022-11-08T05:18:33.491Z,12.57
2022-11-08T05:21:20.199Z,21.33
2022-11-08T05:23:49.375Z,13.50
2022-11-08T05:26:18.306Z,13.60
2022-11-08T05:28:45.726Z,20.00
2022-11-08T05:31:13.125Z,15.65
2022-11-08T05:33:40.410Z,19.98
2022-11-08T05:36:10.893Z,18.42
2022-11-08T05:38:39.141Z,15.38
2022-11-08T05:41:12.391Z,19.02
2022-11-08T05:43:40.643Z,19.08
2022-11-08T05:46:08.397Z,16.05
2022-11-08T05:48:36.144Z,18.02
2022-11-08T05:51:03.473Z,21.27
2022-11-08T05:53:31.791Z,19.40
2022-11-08T05:56:03.283Z,18.05
2022-11-08T05:58:32.006Z,17.90
2022-11-08T06:01:03.171Z,20.23
2022-11-08T06:03:31.432Z,17.40
2022-11-08T06:06:03.665Z,16.55
2022-11-08T06:08:31.050Z,18.00
2022-11-08T06:11:13.224Z,14.18
2022-11-08T06:13:40.902Z,13.07
2022-11-08T06:16:10.798Z,13.60
2022-11-08T06:18:38.673Z,14.00
2022-11-08T06:21:08.622Z,15.85
2022-11-08T06:23:36.054Z,16.67
2022-11-08T06:26:03.692Z,12.68
2022-11-08T06:28:31.112Z,16.33
2022-11-08T06:31:02.597Z,18.17
2022-11-08T06:33:30.660Z,15.57
2022-11-08T06:35:58.196Z,10.60
2022-11-08T06:38:25.629Z,13.57
2022-11-08T06:40:52.799Z,16.15
2022-11-08T06:43:20.540Z,14.45
2022-11-08T06:45:48.420Z,18.88
2022-11-08T06:48:15.539Z,13.75
2022-11-08T06:50:43.744Z,13.55
2022-11-08T06:53:13.673Z,15.25
2022-11-08T06:55:40.928Z,18.80
2022-11-08T06:58:08.524Z,18.60
2022-11-08T07:00:35.724Z,18.88
2022-11-08T07:03:04.027Z,12.68
2022-11-08T07:05:33.030Z,16.85
2022-11-08T07:08:01.305Z,14.25
2022-11-08T07:10:30.668Z,15.48
2022-11-08T07:13:05.125Z,18.75
2022-11-08T07:15:34.017Z,18.50
2022-11-08T07:18:14.567Z,15.77
2022-11-08T07:20:43.033Z,16.63
2022-11-08T07:23:11.375Z,14.82
2022-11-08T07:25:38.977Z,12.63
2022-11-08T07:28:08.295Z,13.90
2022-11-08T07:30:36.238Z,15.90
2022-11-08T07:33:03.806Z,13.50
2022-11-08T07:35:30.967Z,16.67
2022-11-08T07:37:58.616Z,12.98
2022-11-08T07:40:26.140Z,16.10
2022-11-08T07:45:42.060Z,13.82
2022-11-08T07:48:13.036Z,16.10
2022-11-08T07:50:43.344Z,13.80
2022-11-08T07:53:10.736Z,15.70
2022-11-08T07:55:38.849Z,16.83
2022-11-08T07:58:06.375Z,17.88
2022-11-08T08:00:36.678Z,15.43
2022-11-08T08:03:06.159Z,14.20
2022-11-08T08:05:40.059Z,16.60
2022-11-08T08:08:07.368Z,14.00
2022-11-08T08:10:35.257Z,13.95
2022-11-08T08:13:03.235Z,15.98
2022-11-08T08:15:30.427Z,15.70
2022-11-08T08:18:00.825Z,17.33
2022-11-08T08:20:28.177Z,19.85
2022-11-08T08:22:55.294Z,15.30
2022-11-08T08:25:22.495Z,18.48
2022-11-08T08:27:50.939Z,15.73
2022-11-08T08:30:19.385Z,13.98
2022-11-08T08:32:53.375Z,14.80
2022-11-08T08:35:24.995Z,17.33
2022-11-08T08:37:52.245Z,15.05
2022-11-08T08:40:19.338Z,14.90
2022-11-08T08:42:46.356Z,16.45
2022-11-08T08:45:15.134Z,16.27
2022-11-08T08:47:42.447Z,14.57
2022-11-08T08:50:10.197Z,14.75
2022-11-08T08:52:37.306Z,19.45
2022-11-08T08:55:04.686Z,16.63
2022-11-08T08:57:32.209Z,13.82
2022-11-08T09:02:46.608Z,17.92
2022-11-08T09:05:14.337Z,18.67
2022-11-08T09:07:41.993Z,15.10
2022-11-08T09:10:10.441Z,15.82
2022-11-08T09:12:37.908Z,22.05
2022-11-08T09:15:06.247Z,21.13
2022-11-08T09:17:33.376Z,16.23
2022-11-08T09:20:00.553Z,15.93
2022-11-08T09:22:27.736Z,17.55
2022-11-08T09:24:54.888Z,19.08
2022-11-08T09:27:21.996Z,18.65
2022-11-08T09:29:49.032Z,16.75
2022-11-08T09:32:21.487Z,17.17
2022-11-08T09:34:57.029Z,17.20
2022-11-08T09:37:24.835Z,17.90
2022-11-08T09:39:51.957Z,16.80
2022-11-08T09:42:45.709Z,15.02
2022-11-08T09:45:12.785Z,13.95
2022-11-08T09:47:49.077Z,15.32
2022-11-08T09:50:42.977Z,17.60
2022-11-08T09:53:22.275Z,14.27
2022-11-08T09:56:00.189Z,20.73
2022-11-08T09:58:35.795Z,15.05
2022-11-08T10:01:03.894Z,16.55
2022-11-08T10:03:31.137Z,14.15
2022-11-08T10:06:42.455Z,14.65
2022-11-08T10:09:46.605Z,12.45
2022-11-08T10:12:25.616Z,16.50
2022-11-08T10:15:01.275Z,14.15
2022-11-08T10:17:34.448Z,15.95
2022-11-08T10:20:11.595Z,13.02
2022-11-08T10:23:10.104Z,12.73
2022-11-08T10:25:47.215Z,14.15
2022-11-08T10:28:17.506Z,9.95
2022-11-08T10:30:48.894Z,11.02
2022-11-08T10:33:25.184Z,11.73
2022-11-08T10:36:13.675Z,10.27
2022-11-08T10:38:46.195Z,9.20
2022-11-08T10:41:28.661Z,8.43
2022-11-08T10:44:12.017Z,10.05
2022-11-08T10:46:49.245Z,9.80
2022-11-08T10:49:25.167Z,11.30
2022-11-08T10:52:13.965Z,13.68
2022-11-08T10:54:52.960Z,6.88
2022-11-08T10:57:32.327Z,7.82
2022-11-08T11:00:20.475Z,11.35
2022-11-08T11:02:53.864Z,11.70
2022-11-08T11:05:29.106Z,10.77
2022-11-08T11:08:04.115Z,10.25
2022-11-08T11:10:34.630Z,8.32
2022-11-08T11:13:06.226Z,8.85
2022-11-08T11:15:56.288Z,9.60
2022-11-08T11:18:49.247Z,9.43
2022-11-08T11:21:25.556Z,9.10
2022-11-08T11:24:05.837Z,9.35
2022-11-08T11:26:36.249Z,9.98
2022-11-08T11:29:06.879Z,7.95
2022-11-08T11:31:36.818Z,8.25
2022-11-08T11:34:18.693Z,10.05
2022-11-08T11:37:11.219Z,8.45
2022-11-08T11:39:54.028Z,10.52
2022-11-08T11:43:04.448Z,8.13
2022-11-08T11:45:54.747Z,8.50
2022-11-08T11:48:29.604Z,7.85
2022-11-08T11:50:57.958Z,8.73
2022-11-08T11:53:33.375Z,7.85
2022-11-08T11:56:27.345Z,8.10
2022-11-08T11:59:32.916Z,9.43
2022-11-08T12:02:21.663Z,10.70
2022-11-08T12:04:56.173Z,9.00
2022-11-08T12:07:33.229Z,10.23
2022-11-08T12:10:28.544Z,8.15
2022-11-08T12:13:18.464Z,12.73
2022-11-08T12:16:01.335Z,8.85
2022-11-08T12:18:44.527Z,9.15
2022-11-08T12:21:15.228Z,5.38
2022-11-08T12:23:53.527Z,10.90
2022-11-08T12:26:36.558Z,10.38
2022-11-08T12:29:24.544Z,7.45
2022-11-08T12:31:58.873Z,8.57
2022-11-08T12:34:25.887Z,8.93
2022-11-08T12:37:16.225Z,8.80
2022-11-08T12:40:04.174Z,8.15
2022-11-08T12:42:42.244Z,8.73
2022-11-08T12:45:50.353Z,7.47
2022-11-08T12:48:31.507Z,8.65
2022-11-08T12:51:13.266Z,6.18
2022-11-08T12:54:12.127Z,9.32
2022-11-08T12:56:46.244Z,7.32
2022-11-08T12:59:21.553Z,8.52
2022-11-08T13:01:50.166Z,7.85
2022-11-08T13:04:36.483Z,9.00
2022-11-08T13:07:39.114Z,7.90
2022-11-08T13:10:15.648Z,6.78
2022-11-08T13:13:36.949Z,7.30
2022-11-08T13:16:23.371Z,8.20
2022-11-08T13:18:56.099Z,9.48
2022-11-08T13:21:29.234Z,8.90
2022-11-08T13:24:09.794Z,8.63
2022-11-08T13:26:50.351Z,7.30
2022-11-08T13:29:20.569Z,7.65
2022-11-08T13:31:55.042Z,7.47
2022-11-08T13:34:50.862Z,4.43
2022-11-08T13:37:39.991Z,6.43
2022-11-08T13:40:25.663Z,6.28
2022-11-08T13:43:16.318Z,3.90
2022-11-08T13:48:34.799Z,4.57
2022-11-08T13:51:36.530Z,6.65
2022-11-08T13:54:22.048Z,7.35
2022-11-08T13:56:52.809Z,6.93
2022-11-08T13:59:32.536Z,8.57
2022-11-08T14:02:18.427Z,7.65
2022-11-08T14:04:45.787Z,7.72
2022-11-08T14:07:32.868Z,9.02
2022-11-08T14:10:04.532Z,9.55
2022-11-08T14:12:56.858Z,9.98
2022-11-08T14:15:28.727Z,11.80
2022-11-08T14:17:56.951Z,12.23
2022-11-08T14:20:35.147Z,11.77
2022-11-08T14:23:26.189Z,13.55
2022-11-08T14:26:34.094Z,9.43
2022-11-08T14:29:01.189Z,9.88
2022-11-08T14:31:33.789Z,14.27
2022-11-08T14:34:02.017Z,13.35
2022-11-08T14:36:31.247Z,11.68
2022-11-08T14:39:02.615Z,11.48
2022-11-08T14:41:32.107Z,11.90
2022-11-08T14:44:00.746Z,14.18
2022-11-08T14:46:40.826Z,16.48
2022-11-08T14:49:18.232Z,7.85
2022-11-08T14:51:46.496Z,13.43
2022-11-08T14:54:19.168Z,12.15
2022-11-08T14:56:47.061Z,13.27
2022-11-08T14:59:14.714Z,12.45
2022-11-08T15:01:46.030Z,11.68
2022-11-08T15:04:19.430Z,11.20
2022-11-08T15:06:50.928Z,16.38
2022-11-08T15:09:33.544Z,11.23
2022-11-08T15:12:13.829Z,20.35
2022-11-08T15:14:59.186Z,13.90
2022-11-08T15:17:33.361Z,11.68
2022-11-08T15:20:17.490Z,16.27
2022-11-08T15:22:46.602Z,10.48
2022-11-08T15:25:24.189Z,12.73
2022-11-08T15:28:12.973Z,14.68
2022-11-08T15:30:43.641Z,17.35
2022-11-08T15:33:39.079Z,11.85
2022-11-08T15:36:14.647Z,16.23
2022-11-08T15:38:43.619Z,15.43
2022-11-08T15:41:29.411Z,12.57
2022-11-08T15:44:16.672Z,12.73
2022-11-08T15:46:44.289Z,13.32
2022-11-08T15:49:24.670Z,13.23
2022-11-08T15:51:54.649Z,13.50
2022-11-08T15:54:24.152Z,14.45
2022-11-08T15:56:53.307Z,16.35
2022-11-08T15:59:24.731Z,11.23
2022-11-08T16:01:56.318Z,9.80
2022-11-08T16:04:23.600Z,10.98
2022-11-08T16:06:51.077Z,14.23
2022-11-08T16:09:18.221Z,10.32
2022-11-08T16:11:46.671Z,15.05
2022-11-08T16:14:20.286Z,13.07
2022-11-08T16:16:47.971Z,11.10
2022-11-08T16:19:18.072Z,9.80
2022-11-08T16:21:45.233Z,10.90
2022-11-08T16:24:12.341Z,13.18
2022-11-08T16:26:41.031Z,12.18
2022-11-08T16:29:16.646Z,16.08
2022-11-08T16:31:43.753Z,12.55
2022-11-08T16:34:11.771Z,15.23
2022-11-08T16:36:39.321Z,14.95
2022-11-08T16:39:14.324Z,14.45
2022-11-08T16:41:42.926Z,17.80
2022-11-08T16:44:11.551Z,13.27
2022-11-08T16:46:39.084Z,17.15
2022-11-08T16:49:07.441Z,19.15
2022-11-08T16:51:35.720Z,14.40
2022-11-08T16:54:03.713Z,15.93
2022-11-08T16:56:30.772Z,17.30
2022-11-08T16:58:57.941Z,16.05
2022-11-08T17:01:33.407Z,14.02
2022-11-08T17:04:00.554Z,15.77
2022-11-08T17:06:27.696Z,14.88
2022-11-08T17:08:54.892Z,16.63
2022-11-08T17:11:23.606Z,12.45
2022-11-08T17:13:52.848Z,15.02
2022-11-08T17:16:20.333Z,14.35
2022-11-08T17:18:52.443Z,12.05
2022-11-08T17:21:43.813Z,15.48
2022-11-08T17:24:08.131Z,14.38
2022-11-08T17:26:35.548Z,14.43
2022-11-08T17:29:02.612Z,13.32
2022-11-08T17:31:29.691Z,13.70
2022-11-08T17:33:56.897Z,13.02
2022-11-08T17:36:24.085Z,17.73
2022-11-08T17:38:51.583Z,15.27
2022-11-08T17:41:18.870Z,15.98
2022-11-08T17:43:45.963Z,18.08
2022-11-08T17:46:13.207Z,17.75
2022-11-08T17:48:41.131Z,14.20
2022-11-08T17:51:08.772Z,13.88
2022-11-08T17:53:36.494Z,16.48
2022-11-08T17:56:05.766Z,13.18
2022-11-08T17:58:34.332Z,13.13
2022-11-08T18:01:03.456Z,13.52
2022-11-08T18:03:31.321Z,13.43
2022-11-08T18:06:07.641Z,10.85
2022-11-08T18:08:35.450Z,11.30
2022-11-08T18:11:02.993Z,10.52
2022-11-08T18:13:31.153Z,12.48
2022-11-08T18:16:19.843Z,9.07
2022-11-08T18:18:47.284Z,10.00
2022-11-08T18:21:15.993Z,13.57
2022-11-08T18:23:45.140Z,9.30
2022-11-08T18:26:13.519Z,10.73
2022-11-08T18:28:42.131Z,10.43
2022-11-08T18:31:15.138Z,10.52
2022-11-08T18:33:43.249Z,9.35
2022-11-08T18:36:18.981Z,9.73
2022-11-08T18:38:46.774Z,7.90
2022-11-08T18:41:16.651Z,9.55
2022-11-08T18:43:44.380Z,8.77
2022-11-08T18:46:14.503Z,9.63
2022-11-08T18:48:41.692Z,9.07
2022-11-08T18:51:15.416Z,8.13
2022-11-08T18:53:46.163Z,6.80
2022-11-08T18:56:15.570Z,7.07
2022-11-08T18:58:45.506Z,7.97
2022-11-08T19:01:15.576Z,7.03
2022-11-08T19:03:42.998Z,6.47
2022-11-08T19:06:10.499Z,7.05
2022-11-08T19:08:38.089Z,6.32
2022-11-08T19:11:08.795Z,6.18
2022-11-08T19:13:38.170Z,7.32
2022-11-08T19:16:08.254Z,6.03
2022-11-08T19:18:36.213Z,6.65
2022-11-08T19:21:06.435Z,7.75
2022-11-08T19:23:34.603Z,7.53
2022-11-08T19:26:04.924Z,8.32
2022-11-08T19:28:34.732Z,7.35
2022-11-08T19:31:02.442Z,9.00
2022-11-08T19:33:30.953Z,7.18
2022-11-08T19:36:02.694Z,7.43
2022-11-08T19:38:31.341Z,8.38
2022-11-08T19:41:05.339Z,9.30
2022-11-08T19:43:38.966Z,8.85
2022-11-08T19:46:10.631Z,10.30
2022-11-08T19:48:40.622Z,10.95
2022-11-08T19:51:13.730Z,9.75
2022-11-08T19:53:41.542Z,9.07
2022-11-08T19:56:11.294Z,10.55
2022-11-08T19:58:39.072Z,10.13
2022-11-08T20:01:17.573Z,9.85
2022-11-08T20:03:45.105Z,11.75
2022-11-08T20:06:13.745Z,10.15
2022-11-08T20:08:41.021Z,8.20
2022-11-08T20:11:33.982Z,13.55
2022-11-08T20:14:03.043Z,13.25
2022-11-08T20:16:33.081Z,12.00
2022-11-08T20:19:06.810Z,14.20
2022-11-08T20:21:34.651Z,9.95
2022-11-08T20:24:02.250Z,14.05
2022-11-08T20:26:29.763Z,14.88
2022-11-08T20:28:57.405Z,13.82
2022-11-08T20:31:25.835Z,14.23
2022-11-08T20:33:53.976Z,16.55
2022-11-08T20:36:23.569Z,14.00
2022-11-08T20:38:54.691Z,12.38
2022-11-08T20:41:21.990Z,12.57
2022-11-08T20:43:49.071Z,16.60
2022-11-08T20:46:18.497Z,15.77
2022-11-08T20:48:51.389Z,14.75
2022-11-08T20:51:20.462Z,18.05
2022-11-08T20:53:49.112Z,15.00
2022-11-08T20:56:22.024Z,13.93
2022-11-08T20:58:51.033Z,18.05
2022-11-08T21:01:23.519Z,20.33
2022-11-08T21:03:52.783Z,15.13
2022-11-08T21:06:25.004Z,16.75
2022-11-08T21:09:07.511Z,14.48
2022-11-08T21:11:37.405Z,16.90
2022-11-08T21:14:05.221Z,17.85
2022-11-08T21:16:47.329Z,14.23
2022-11-08T21:19:20.101Z,16.17
2022-11-08T21:21:50.205Z,17.88
2022-11-08T21:24:17.397Z,16.60
2022-11-08T21:26:44.683Z,14.73
2022-11-08T21:29:11.879Z,16.15
2022-11-08T21:31:38.992Z,12.07
2022-11-08T21:34:06.103Z,16.73
2022-11-08T21:36:33.265Z,13.23
2022-11-08T21:39:00.683Z,14.07
2022-11-08T21:41:27.782Z,18.90
2022-11-08T21:43:54.898Z,12.50
2022-11-08T21:46:24.474Z,14.13
2022-11-08T21:48:59.289Z,17.13
2022-11-08T21:51:27.135Z,16.40
2022-11-08T21:53:56.047Z,18.35
2022-11-08T21:56:32.179Z,20.42
2022-11-08T21:59:01.625Z,16.50
2022-11-08T22:01:30.801Z,16.25
2022-11-08T22:03:59.764Z,14.20
2022-11-08T22:06:27.894Z,13.68
2022-11-08T22:08:55.390Z,18.25
2022-11-08T22:11:22.690Z,16.17
2022-11-08T22:13:49.912Z,18.05
2022-11-08T22:16:17.053Z,12.82
2022-11-08T22:21:44.632Z,22.25
2022-11-08T22:24:18.437Z,18.88
2022-11-08T22:26:45.816Z,14.73
2022-11-08T22:29:13.600Z,13.80
2022-11-08T22:31:41.193Z,13.80
2022-11-08T22:34:09.671Z,17.42
2022-11-08T22:36:43.956Z,15.63
2022-11-08T22:39:14.310Z,14.52
2022-11-08T22:41:42.564Z,15.00
2022-11-08T22:44:12.450Z,15.35
2022-11-08T22:46:41.165Z,15.48
2022-11-08T22:49:08.409Z,15.93
2022-11-08T22:51:35.674Z,12.95
2022-11-08T22:54:03.021Z,12.43
2022-11-08T22:56:30.314Z,10.93
2022-11-08T22:58:57.615Z,16.52
2022-11-08T23:01:25.671Z,18.42
2022-11-08T23:03:53.063Z,14.95
2022-11-08T23:06:20.256Z,12.05
2022-11-08T23:08:48.194Z,17.48
2022-11-08T23:11:33.819Z,13.82
2022-11-08T23:14:19.566Z,13.23
2022-11-08T23:16:46.889Z,14.57
2022-11-08T23:19:34.191Z,16.98
2022-11-08T23:22:20.869Z,16.88
2022-11-08T23:24:48.045Z,12.70
2022-11-08T23:27:36.669Z,19.60
2022-11-08T23:30:24.518Z,13.18
2022-11-08T23:32:52.616Z,15.35
2022-11-08T23:35:21.300Z,13.57
2022-11-08T23:37:48.861Z,15.15
2022-11-08T23:40:36.694Z,17.08
2022-11-08T23:43:23.224Z,17.48
2022-11-08T23:45:50.728Z,13.98
2022-11-08T23:48:18.168Z,15.93
2022-11-08T23:50:54.127Z,14.80
2022-11-08T23:53:24.885Z,17.92
2022-11-08T23:55:53.421Z,16.05
2022-11-08T23:58:21.451Z,12.43
